Barbados Meteorological Services
Auto gathered TAF list
Powered by Apparatus software
For Flight BA2154
Contact Number 1-(246)-535-0021/2/3/4/5/6
WEB: http://www.barbadosweather.org

**********************************************

2017/05/28 18:37
TAF TBPB 281700Z 2818/2918 10015KT 9999 SCT016 SCT034 PROB30
TEMPO 2818/2824 SHRA FEW012CB


**********************************************
2017/05/28 00:00
TAF TAPA 272300Z 2800/2824 08008KT 9999 SCT020 PROB30
TEMPO 2800/2806 SHRA PROB40
TEMPO 2806/2812 SHRA
TEMPO 2818/2824 SHRA


**********************************************
2017/05/28 18:18
TAF LPPR 281700Z 2818/2918 20008KT 9999 SCT015 BKN035
TEMPO 2818/2821 6000 -RA BKN015
BECMG 2821/2824 15008KT 8000 BKN010
TEMPO 2900/2908 1500 DZ BR SCT001 BKN003
BECMG 2909/2911 25007KT SCT012 FEW030TCU
BECMG 2913/2916 32008KT SCT018


**********************************************
2017/05/28 18:18
TAF LPPD 281700Z 2818/2918 28013KT 9999 SCT015
BECMG 2902/2905 FEW008 BKN015
BECMG 2908/2910 SCT015 BKN030
TEMPO 2910/2918 SCT018


**********************************************
2017/05/28 18:09
TAF TAF LPLA 281706Z 2818/2918 28005KT 9999 SCT025 PROB40
TEMPO 2900/2912 8000 SHRA FEW012 BKN020


**********************************************
2017/05/28 18:20
TAF LPAZ 281700Z 2818/2924 30012KT 9999 SCT018
BECMG 2822/2824 27010KT
BECMG 2903/2906 FEW008 BKN018
BECMG 2909/2911 30010KT SCT015 BKN030
TEMPO 2911/2924 SCT018


**********************************************
2017/05/28 18:27
TAF LEVT 281700Z 2818/2918 14009KT 9999 SCT040 TX25/2818Z TN14/2905Z PROB40
TEMPO 2818/2906 3000 SHRA TS SCT030CB
TEMPO 2912/2918 3000 SHRA TS SCT030CB
BECMG 2912/2915 01010KT


**********************************************
2017/05/28 18:27
TAF LEMD 281700Z 2818/2924 VRB05KT 9999 SCT050 TX27/2915Z TN16/2906Z PROB40
TEMPO 2818/2820 27012G22KT
TEMPO 2819/2906 SHRA SCT040TCU PROB40
TEMPO 2820/2905 VRB15G28KT 3000 TS SHRA BKN014 SCT020CB PROB30
TEMPO 2911/2919 FEW040CB


**********************************************
2017/05/28 18:27
TAF ELLX 281700Z 2818/2924 22006KT CAVOK
TEMPO 2818/2821 VRB15G30KT 5000 TSRAGS SCT040CB BKN050


**********************************************
2017/05/28 18:15
TAF TAF EGPK 281704Z 2818/2918 29009KT 9999 SCT015 BKN030
BECMG 2900/2903 06010KT PROB40
TEMPO 2908/2918 3000 +SHRA BKN008 SCT045CB


**********************************************
2017/05/28 18:15
TAF EGLL 281654Z 2818/2924 12007KT 9999 SCT028 PROB40
TEMPO 2818/2821 5000 SHRA
TEMPO 2821/2903 6000 SHRA PROB40
TEMPO 2821/2903 4000 +TSRA
TEMPO 2905/2910 BKN012 PROB30
TEMPO 2906/2909 BKN007
BECMG 2910/2913 24010KT PROB30
TEMPO 2913/2919 8000 SHRA


**********************************************
2017/05/28 18:15
TAF EGKK 281653Z 2818/2924 09006KT 9999 SCT045 PROB40
TEMPO 2818/2822 7000 SHRA PROB40
TEMPO 2822/2904 14015G25KT 3000 +TSRA
TEMPO 2904/2914 BKN012 PROB30 2904/2907 4000 BR BKN005
BECMG 2909/2912 21010KT BKN020 PROB40
TEMPO 2914/2917 7000 SHRA BKN014 PROB40
TEMPO 2917/2924 BKN014


**********************************************
2017/05/28 18:15
TAF EGFF 281659Z 2818/2918 10009KT 9999 SCT045
TEMPO 2818/2903 7000 SHRA PROB30
TEMPO 2818/2821 4000 +SHRA PROB30
TEMPO 2821/2903 4000 +SHRA BKN012 BKN045CB
BECMG 2902/2905 BKN007
TEMPO 2902/2910 6000 -RADZ BKN002 PROB30 2905/2907 0300 FG OVC001
TEMPO 2910/2913 SCT007 BKN014
BECMG 2913/2916 SCT025


**********************************************
2017/05/28 18:15
TAF EGCC 281659Z 2818/2924 32007KT 9999 FEW020
BECMG 2821/2824 07010KT
TEMPO 2821/2903 7000 SHRA PROB30
TEMPO 2821/2903 4000 +SHRA BKN014
TEMPO 2903/2924 BKN007 PROB30
TEMPO 2903/2912 6000 -RADZ PROB30
TEMPO 2912/2918 4000 +SHRA
BECMG 2915/2918 14005KT


**********************************************
2017/05/28 18:28
TAF EDDF 281700Z 2818/2924 13005KT CAVOK
BECMG 2818/2820 VRB03KT PROB40
TEMPO 2818/2824 21015G25KT 4000 TSRA SCT055CB
BECMG 2908/2910 20007KT
BECMG 2918/2920 VRB03KT


**********************************************
2017/05/28 18:27
TAF TAF EBBR 281700Z 2818/2924 05005KT CAVOK PROB30
TEMPO 2912/2921 3500 SHRA TSRA
BECMG 2914/2916 30010KT


**********************************************